sensor_id;sensor_type;location;lat;lon;timestamp;pressure;altitude;pressure_sealevel;temperature
11849;BMP180;5983;49.966;8.052;2023-04-22T00:01:20;99901.00;;;10.10
11849;BMP180;5983;49.966;8.052;2023-04-22T00:03:49;99882.00;;;10.00
11849;BMP180;5983;49.966;8.052;2023-04-22T00:06:17;99891.00;;;10.00
11849;BMP180;5983;49.966;8.052;2023-04-22T00:08:44;99899.00;;;10.00
11849;BMP180;5983;49.966;8.052;2023-04-22T00:11:10;99897.00;;;10.00
11849;BMP180;5983;49.966;8.052;2023-04-22T00:13:37;99898.00;;;10.00
11849;BMP180;5983;49.966;8.052;2023-04-22T00:16:04;99896.00;;;10.00
11849;BMP180;5983;49.966;8.052;2023-04-22T00:18:33;99890.00;;;10.00
11849;BMP180;5983;49.966;8.052;2023-04-22T00:20:59;99890.00;;;10.00
11849;BMP180;5983;49.966;8.052;2023-04-22T00:23:28;99888.00;;;10.00
11849;BMP180;5983;49.966;8.052;2023-04-22T00:25:54;99879.00;;;10.10
11849;BMP180;5983;49.966;8.052;2023-04-22T00:28:21;99883.00;;;10.00
11849;BMP180;5983;49.966;8.052;2023-04-22T00:30:48;99878.00;;;10.00
11849;BMP180;5983;49.966;8.052;2023-04-22T00:33:14;99877.00;;;10.00
11849;BMP180;5983;49.966;8.052;2023-04-22T00:35:41;99885.00;;;9.90
11849;BMP180;5983;49.966;8.052;2023-04-22T00:38:08;99883.00;;;9.90
11849;BMP180;5983;49.966;8.052;2023-04-22T00:40:36;99879.00;;;9.90
11849;BMP180;5983;49.966;8.052;2023-04-22T00:43:03;99881.00;;;9.90
11849;BMP180;5983;49.966;8.052;2023-04-22T00:45:30;99879.00;;;9.90
11849;BMP180;5983;49.966;8.052;2023-04-22T00:47:57;99882.00;;;9.90
11849;BMP180;5983;49.966;8.052;2023-04-22T00:50:25;99879.00;;;9.90
11849;BMP180;5983;49.966;8.052;2023-04-22T00:52:51;99877.00;;;9.90
11849;BMP180;5983;49.966;8.052;2023-04-22T00:55:18;99885.00;;;9.90
11849;BMP180;5983;49.966;8.052;2023-04-22T00:57:48;99869.00;;;9.90
11849;BMP180;5983;49.966;8.052;2023-04-22T01:00:16;99869.00;;;9.80
11849;BMP180;5983;49.966;8.052;2023-04-22T01:02:44;99872.00;;;9.80
11849;BMP180;5983;49.966;8.052;2023-04-22T01:05:11;99872.00;;;9.80
11849;BMP180;5983;49.966;8.052;2023-04-22T01:07:38;99872.00;;;9.80
11849;BMP180;5983;49.966;8.052;2023-04-22T01:10:06;99872.00;;;9.80
11849;BMP180;5983;49.966;8.052;2023-04-22T01:12:33;99876.00;;;9.80
11849;BMP180;5983;49.966;8.052;2023-04-22T01:15:02;99875.00;;;9.80
11849;BMP180;5983;49.966;8.052;2023-04-22T01:17:28;99878.00;;;9.80
11849;BMP180;5983;49.966;8.052;2023-04-22T01:19:56;99872.00;;;9.80
11849;BMP180;5983;49.966;8.052;2023-04-22T01:22:24;99875.00;;;9.80
11849;BMP180;5983;49.966;8.052;2023-04-22T01:24:53;99865.00;;;9.80
11849;BMP180;5983;49.966;8.052;2023-04-22T01:27:20;99871.00;;;9.90
11849;BMP180;5983;49.966;8.052;2023-04-22T01:29:47;99871.00;;;9.90
11849;BMP180;5983;49.966;8.052;2023-04-22T01:32:14;99864.00;;;9.90
11849;BMP180;5983;49.966;8.052;2023-04-22T01:34:40;99867.00;;;9.90
11849;BMP180;5983;49.966;8.052;2023-04-22T01:37:07;99861.00;;;9.90
11849;BMP180;5983;49.966;8.052;2023-04-22T01:39:34;99863.00;;;9.90
11849;BMP180;5983;49.966;8.052;2023-04-22T01:42:03;99867.00;;;9.90
11849;BMP180;5983;49.966;8.052;2023-04-22T01:44:30;99855.00;;;9.90
11849;BMP180;5983;49.966;8.052;2023-04-22T01:46:56;99861.00;;;9.90
11849;BMP180;5983;49.966;8.052;2023-04-22T01:49:23;99863.00;;;9.90
11849;BMP180;5983;49.966;8.052;2023-04-22T01:51:50;99861.00;;;9.90
11849;BMP180;5983;49.966;8.052;2023-04-22T01:54:17;99868.00;;;9.90
11849;BMP180;5983;49.966;8.052;2023-04-22T01:56:49;99865.00;;;9.90
11849;BMP180;5983;49.966;8.052;2023-04-22T01:59:17;99866.00;;;9.90
11849;BMP180;5983;49.966;8.052;2023-04-22T02:01:44;99857.00;;;9.90
11849;BMP180;5983;49.966;8.052;2023-04-22T02:04:10;99859.00;;;9.90
11849;BMP180;5983;49.966;8.052;2023-04-22T02:06:37;99858.00;;;9.90
11849;BMP180;5983;49.966;8.052;2023-04-22T02:09:04;99859.00;;;9.90
11849;BMP180;5983;49.966;8.052;2023-04-22T02:11:31;99857.00;;;9.90
11849;BMP180;5983;49.966;8.052;2023-04-22T02:13:58;99862.00;;;9.90
11849;BMP180;5983;49.966;8.052;2023-04-22T02:16:26;99867.00;;;9.90
11849;BMP180;5983;49.966;8.052;2023-04-22T02:18:53;99871.00;;;9.90
11849;BMP180;5983;49.966;8.052;2023-04-22T02:21:19;99857.00;;;9.90
11849;BMP180;5983;49.966;8.052;2023-04-22T02:23:46;99863.00;;;9.90
11849;BMP180;5983;49.966;8.052;2023-04-22T02:26:13;99867.00;;;9.90
11849;BMP180;5983;49.966;8.052;2023-04-22T02:28:40;99865.00;;;9.90
11849;BMP180;5983;49.966;8.052;2023-04-22T02:31:07;99862.00;;;9.90
11849;BMP180;5983;49.966;8.052;2023-04-22T02:33:35;99861.00;;;9.80
11849;BMP180;5983;49.966;8.052;2023-04-22T02:36:02;99856.00;;;9.80
11849;BMP180;5983;49.966;8.052;2023-04-22T02:38:29;99868.00;;;9.70
11849;BMP180;5983;49.966;8.052;2023-04-22T02:40:55;99869.00;;;9.70
11849;BMP180;5983;49.966;8.052;2023-04-22T02:43:22;99869.00;;;9.70
11849;BMP180;5983;49.966;8.052;2023-04-22T02:45:49;99870.00;;;9.70
11849;BMP180;5983;49.966;8.052;2023-04-22T02:48:15;99869.00;;;9.70
11849;BMP180;5983;49.966;8.052;2023-04-22T02:50:43;99879.00;;;9.70
11849;BMP180;5983;49.966;8.052;2023-04-22T02:53:10;99874.00;;;9.70
11849;BMP180;5983;49.966;8.052;2023-04-22T02:55:38;99875.00;;;9.70
11849;BMP180;5983;49.966;8.052;2023-04-22T02:58:05;99873.00;;;9.70
11849;BMP180;5983;49.966;8.052;2023-04-22T03:00:33;99864.00;;;9.70
11849;BMP180;5983;49.966;8.052;2023-04-22T03:03:00;99870.00;;;9.70
11849;BMP180;5983;49.966;8.052;2023-04-22T03:05:27;99866.00;;;9.60
11849;BMP180;5983;49.966;8.052;2023-04-22T03:07:55;99857.00;;;9.60
11849;BMP180;5983;49.966;8.052;2023-04-22T03:10:21;99865.00;;;9.50
11849;BMP180;5983;49.966;8.052;2023-04-22T03:12:48;99864.00;;;9.50
11849;BMP180;5983;49.966;8.052;2023-04-22T03:15:15;99858.00;;;9.50
11849;BMP180;5983;49.966;8.052;2023-04-22T03:17:41;99856.00;;;9.60
11849;BMP180;5983;49.966;8.052;2023-04-22T03:20:09;99859.00;;;9.60
11849;BMP180;5983;49.966;8.052;2023-04-22T03:22:36;99861.00;;;9.60
11849;BMP180;5983;49.966;8.052;2023-04-22T03:25:05;99859.00;;;9.70
11849;BMP180;5983;49.966;8.052;2023-04-22T03:27:32;99860.00;;;9.70
11849;BMP180;5983;49.966;8.052;2023-04-22T03:29:58;99851.00;;;9.70
11849;BMP180;5983;49.966;8.052;2023-04-22T03:32:26;99863.00;;;9.70
11849;BMP180;5983;49.966;8.052;2023-04-22T03:34:53;99861.00;;;9.70
11849;BMP180;5983;49.966;8.052;2023-04-22T03:37:20;99870.00;;;9.70
11849;BMP180;5983;49.966;8.052;2023-04-22T03:39:46;99862.00;;;9.70
11849;BMP180;5983;49.966;8.052;2023-04-22T03:42:14;99862.00;;;9.70
11849;BMP180;5983;49.966;8.052;2023-04-22T03:44:41;99863.00;;;9.60
11849;BMP180;5983;49.966;8.052;2023-04-22T03:47:08;99866.00;;;9.60
11849;BMP180;5983;49.966;8.052;2023-04-22T03:49:35;99868.00;;;9.60
11849;BMP180;5983;49.966;8.052;2023-04-22T03:52:01;99861.00;;;9.60
11849;BMP180;5983;49.966;8.052;2023-04-22T03:54:28;99858.00;;;9.60
11849;BMP180;5983;49.966;8.052;2023-04-22T03:56:55;99855.00;;;9.60
11849;BMP180;5983;49.966;8.052;2023-04-22T03:59:23;99863.00;;;9.50
11849;BMP180;5983;49.966;8.052;2023-04-22T04:01:50;99856.00;;;9.50
11849;BMP180;5983;49.966;8.052;2023-04-22T04:04:18;99855.00;;;9.50
11849;BMP180;5983;49.966;8.052;2023-04-22T04:06:45;99850.00;;;9.50
11849;BMP180;5983;49.966;8.052;2023-04-22T04:09:11;99850.00;;;9.50
11849;BMP180;5983;49.966;8.052;2023-04-22T04:11:38;99855.00;;;9.40
11849;BMP180;5983;49.966;8.052;2023-04-22T04:14:05;99851.00;;;9.40
11849;BMP180;5983;49.966;8.052;2023-04-22T04:16:33;99847.00;;;9.40
11849;BMP180;5983;49.966;8.052;2023-04-22T04:19:00;99850.00;;;9.40
11849;BMP180;5983;49.966;8.052;2023-04-22T04:21:27;99848.00;;;9.40
11849;BMP180;5983;49.966;8.052;2023-04-22T04:23:54;99862.00;;;9.40
11849;BMP180;5983;49.966;8.052;2023-04-22T04:26:20;99862.00;;;9.40
11849;BMP180;5983;49.966;8.052;2023-04-22T04:28:48;99855.00;;;9.40
11849;BMP180;5983;49.966;8.052;2023-04-22T04:31:15;99856.00;;;9.30
11849;BMP180;5983;49.966;8.052;2023-04-22T04:33:43;99839.00;;;9.30
11849;BMP180;5983;49.966;8.052;2023-04-22T04:36:11;99852.00;;;9.30
11849;BMP180;5983;49.966;8.052;2023-04-22T04:38:38;99842.00;;;9.40
11849;BMP180;5983;49.966;8.052;2023-04-22T04:41:04;99848.00;;;9.40
11849;BMP180;5983;49.966;8.052;2023-04-22T04:43:33;99839.00;;;9.30
11849;BMP180;5983;49.966;8.052;2023-04-22T04:46:00;99836.00;;;9.30
11849;BMP180;5983;49.966;8.052;2023-04-22T04:48:27;99829.00;;;9.30
11849;BMP180;5983;49.966;8.052;2023-04-22T04:53:28;99833.00;;;9.30
11849;BMP180;5983;49.966;8.052;2023-04-22T04:55:54;99831.00;;;9.30
11849;BMP180;5983;49.966;8.052;2023-04-22T04:58:21;99830.00;;;9.30
11849;BMP180;5983;49.966;8.052;2023-04-22T05:00:48;99838.00;;;9.30
11849;BMP180;5983;49.966;8.052;2023-04-22T05:03:15;99839.00;;;9.30
11849;BMP180;5983;49.966;8.052;2023-04-22T05:05:41;99848.00;;;9.40
11849;BMP180;5983;49.966;8.052;2023-04-22T05:08:10;99845.00;;;9.40
11849;BMP180;5983;49.966;8.052;2023-04-22T05:10:38;99852.00;;;9.40
11849;BMP180;5983;49.966;8.052;2023-04-22T05:13:06;99857.00;;;9.50
11849;BMP180;5983;49.966;8.052;2023-04-22T05:15:33;99860.00;;;9.50
11849;BMP180;5983;49.966;8.052;2023-04-22T05:18:00;99863.00;;;9.60
11849;BMP180;5983;49.966;8.052;2023-04-22T05:20:27;99865.00;;;9.60
11849;BMP180;5983;49.966;8.052;2023-04-22T05:22:54;99883.00;;;9.60
11849;BMP180;5983;49.966;8.052;2023-04-22T05:25:20;99878.00;;;9.50
11849;BMP180;5983;49.966;8.052;2023-04-22T05:27:48;99883.00;;;9.60
11849;BMP180;5983;49.966;8.052;2023-04-22T05:30:15;99889.00;;;9.60
11849;BMP180;5983;49.966;8.052;2023-04-22T05:32:42;99891.00;;;9.70
11849;BMP180;5983;49.966;8.052;2023-04-22T05:35:09;99888.00;;;9.70
11849;BMP180;5983;49.966;8.052;2023-04-22T05:37:36;99890.00;;;9.80
11849;BMP180;5983;49.966;8.052;2023-04-22T05:40:03;99887.00;;;9.80
11849;BMP180;5983;49.966;8.052;2023-04-22T05:42:31;99892.00;;;9.90
11849;BMP180;5983;49.966;8.052;2023-04-22T05:44:59;99894.00;;;10.00
11849;BMP180;5983;49.966;8.052;2023-04-22T05:47:26;99882.00;;;10.10
11849;BMP180;5983;49.966;8.052;2023-04-22T05:49:52;99885.00;;;10.10
11849;BMP180;5983;49.966;8.052;2023-04-22T05:52:19;99868.00;;;10.20
11849;BMP180;5983;49.966;8.052;2023-04-22T05:54:46;99871.00;;;10.20
11849;BMP180;5983;49.966;8.052;2023-04-22T05:57:13;99871.00;;;10.30
11849;BMP180;5983;49.966;8.052;2023-04-22T05:59:40;99883.00;;;10.30
11849;BMP180;5983;49.966;8.052;2023-04-22T06:02:08;99883.00;;;10.40
11849;BMP180;5983;49.966;8.052;2023-04-22T06:04:37;99879.00;;;10.40
11849;BMP180;5983;49.966;8.052;2023-04-22T06:07:07;99884.00;;;10.50
11849;BMP180;5983;49.966;8.052;2023-04-22T06:09:33;99890.00;;;10.60
11849;BMP180;5983;49.966;8.052;2023-04-22T06:12:00;99888.00;;;10.70
11849;BMP180;5983;49.966;8.052;2023-04-22T06:14:27;99889.00;;;10.80
11849;BMP180;5983;49.966;8.052;2023-04-22T06:16:54;99881.00;;;10.90
11849;BMP180;5983;49.966;8.052;2023-04-22T06:19:22;99882.00;;;11.10
11849;BMP180;5983;49.966;8.052;2023-04-22T06:21:49;99885.00;;;11.20
11849;BMP180;5983;49.966;8.052;2023-04-22T06:24:15;99886.00;;;11.40
11849;BMP180;5983;49.966;8.052;2023-04-22T06:26:42;99879.00;;;11.60
11849;BMP180;5983;49.966;8.052;2023-04-22T06:29:09;99880.00;;;11.90
11849;BMP180;5983;49.966;8.052;2023-04-22T06:31:36;99873.00;;;12.10
11849;BMP180;5983;49.966;8.052;2023-04-22T06:34:03;99868.00;;;12.30
11849;BMP180;5983;49.966;8.052;2023-04-22T06:36:31;99863.00;;;12.50
11849;BMP180;5983;49.966;8.052;2023-04-22T06:39:01;99864.00;;;12.80
11849;BMP180;5983;49.966;8.052;2023-04-22T06:41:29;99870.00;;;13.10
11849;BMP180;5983;49.966;8.052;2023-04-22T06:43:56;99874.00;;;13.40
11849;BMP180;5983;49.966;8.052;2023-04-22T06:46:23;99866.00;;;13.60
11849;BMP180;5983;49.966;8.052;2023-04-22T06:48:50;99862.00;;;13.90
11849;BMP180;5983;49.966;8.052;2023-04-22T06:51:17;99878.00;;;14.30
11849;BMP180;5983;49.966;8.052;2023-04-22T06:53:45;99887.00;;;14.50
11849;BMP180;5983;49.966;8.052;2023-04-22T06:56:11;99877.00;;;14.70
11849;BMP180;5983;49.966;8.052;2023-04-22T06:58:40;99881.00;;;14.90
11849;BMP180;5983;49.966;8.052;2023-04-22T07:01:06;99879.00;;;15.20
11849;BMP180;5983;49.966;8.052;2023-04-22T07:03:33;99876.00;;;15.40
11849;BMP180;5983;49.966;8.052;2023-04-22T07:06:00;99876.00;;;15.60
11849;BMP180;5983;49.966;8.052;2023-04-22T07:08:27;99872.00;;;15.90
11849;BMP180;5983;49.966;8.052;2023-04-22T07:10:55;99871.00;;;16.10
11849;BMP180;5983;49.966;8.052;2023-04-22T07:13:22;99872.00;;;16.20
11849;BMP180;5983;49.966;8.052;2023-04-22T07:15:53;99877.00;;;16.40
11849;BMP180;5983;49.966;8.052;2023-04-22T07:18:20;99877.00;;;16.60
11849;BMP180;5983;49.966;8.052;2023-04-22T07:20:46;99880.00;;;16.80
11849;BMP180;5983;49.966;8.052;2023-04-22T07:23:13;99874.00;;;17.00
11849;BMP180;5983;49.966;8.052;2023-04-22T07:25:40;99872.00;;;17.20
11849;BMP180;5983;49.966;8.052;2023-04-22T07:28:08;99876.00;;;17.50
11849;BMP180;5983;49.966;8.052;2023-04-22T07:30:35;99874.00;;;17.80
11849;BMP180;5983;49.966;8.052;2023-04-22T07:33:02;99873.00;;;18.10
11849;BMP180;5983;49.966;8.052;2023-04-22T07:35:28;99863.00;;;18.30
11849;BMP180;5983;49.966;8.052;2023-04-22T07:37:56;99871.00;;;18.60
11849;BMP180;5983;49.966;8.052;2023-04-22T07:40:23;99870.00;;;18.80
11849;BMP180;5983;49.966;8.052;2023-04-22T07:42:49;99872.00;;;18.80
11849;BMP180;5983;49.966;8.052;2023-04-22T07:45:17;99880.00;;;19.00
11849;BMP180;5983;49.966;8.052;2023-04-22T07:47:44;99873.00;;;19.00
11849;BMP180;5983;49.966;8.052;2023-04-22T07:50:11;99876.00;;;18.90
11849;BMP180;5983;49.966;8.052;2023-04-22T07:52:38;99875.00;;;18.80
11849;BMP180;5983;49.966;8.052;2023-04-22T07:55:06;99869.00;;;18.60
11849;BMP180;5983;49.966;8.052;2023-04-22T07:57:33;99864.00;;;18.60
11849;BMP180;5983;49.966;8.052;2023-04-22T08:00:04;99859.00;;;18.60
11849;BMP180;5983;49.966;8.052;2023-04-22T08:02:32;99870.00;;;18.60
11849;BMP180;5983;49.966;8.052;2023-04-22T08:05:02;99872.00;;;18.80
11849;BMP180;5983;49.966;8.052;2023-04-22T08:07:29;99873.00;;;18.80
11849;BMP180;5983;49.966;8.052;2023-04-22T08:09:55;99866.00;;;18.80
11849;BMP180;5983;49.966;8.052;2023-04-22T08:12:22;99868.00;;;18.90
11849;BMP180;5983;49.966;8.052;2023-04-22T08:14:49;99867.00;;;19.00
11849;BMP180;5983;49.966;8.052;2023-04-22T08:17:16;99871.00;;;19.20
11849;BMP180;5983;49.966;8.052;2023-04-22T08:19:48;99866.00;;;19.30
11849;BMP180;5983;49.966;8.052;2023-04-22T08:22:15;99871.00;;;19.50
11849;BMP180;5983;49.966;8.052;2023-04-22T08:24:43;99872.00;;;19.90
11849;BMP180;5983;49.966;8.052;2023-04-22T08:27:10;99861.00;;;20.20
11849;BMP180;5983;49.966;8.052;2023-04-22T08:29:37;99864.00;;;20.50
11849;BMP180;5983;49.966;8.052;2023-04-22T08:32:04;99862.00;;;20.70
11849;BMP180;5983;49.966;8.052;2023-04-22T08:34:31;99859.00;;;20.60
11849;BMP180;5983;49.966;8.052;2023-04-22T08:36:59;99865.00;;;20.60
11849;BMP180;5983;49.966;8.052;2023-04-22T08:39:26;99863.00;;;20.80
11849;BMP180;5983;49.966;8.052;2023-04-22T08:41:52;99860.00;;;20.80
11849;BMP180;5983;49.966;8.052;2023-04-22T08:44:21;99866.00;;;20.80
11849;BMP180;5983;49.966;8.052;2023-04-22T08:46:47;99852.00;;;20.80
11849;BMP180;5983;49.966;8.052;2023-04-22T08:49:15;99854.00;;;20.80
11849;BMP180;5983;49.966;8.052;2023-04-22T08:51:42;99850.00;;;20.50
11849;BMP180;5983;49.966;8.052;2023-04-22T08:54:11;99852.00;;;20.50
11849;BMP180;5983;49.966;8.052;2023-04-22T08:56:40;99856.00;;;20.50
11849;BMP180;5983;49.966;8.052;2023-04-22T08:59:08;99851.00;;;20.60
11849;BMP180;5983;49.966;8.052;2023-04-22T09:01:36;99837.00;;;20.60
11849;BMP180;5983;49.966;8.052;2023-04-22T09:04:04;99836.00;;;20.70
11849;BMP180;5983;49.966;8.052;2023-04-22T09:06:31;99841.00;;;21.00
11849;BMP180;5983;49.966;8.052;2023-04-22T09:08:59;99837.00;;;21.40
11849;BMP180;5983;49.966;8.052;2023-04-22T09:11:27;99835.00;;;21.70
11849;BMP180;5983;49.966;8.052;2023-04-22T09:13:54;99838.00;;;22.10
11849;BMP180;5983;49.966;8.052;2023-04-22T09:16:21;99844.00;;;22.50
11849;BMP180;5983;49.966;8.052;2023-04-22T09:18:48;99837.00;;;22.50
11849;BMP180;5983;49.966;8.052;2023-04-22T09:21:16;99834.00;;;22.20
11849;BMP180;5983;49.966;8.052;2023-04-22T09:23:45;99827.00;;;22.20
11849;BMP180;5983;49.966;8.052;2023-04-22T09:26:12;99834.00;;;22.10
11849;BMP180;5983;49.966;8.052;2023-04-22T09:28:51;99831.00;;;22.00
11849;BMP180;5983;49.966;8.052;2023-04-22T09:31:19;99830.00;;;21.90
11849;BMP180;5983;49.966;8.052;2023-04-22T09:33:48;99834.00;;;22.00
11849;BMP180;5983;49.966;8.052;2023-04-22T09:36:15;99826.00;;;22.00
11849;BMP180;5983;49.966;8.052;2023-04-22T09:38:51;99823.00;;;22.10
11849;BMP180;5983;49.966;8.052;2023-04-22T09:41:25;99824.00;;;22.40
11849;BMP180;5983;49.966;8.052;2023-04-22T09:43:55;99817.00;;;22.60
11849;BMP180;5983;49.966;8.052;2023-04-22T09:46:23;99825.00;;;22.70
11849;BMP180;5983;49.966;8.052;2023-04-22T09:48:50;99823.00;;;22.90
11849;BMP180;5983;49.966;8.052;2023-04-22T09:51:18;99823.00;;;23.10
11849;BMP180;5983;49.966;8.052;2023-04-22T09:53:45;99812.00;;;23.20
11849;BMP180;5983;49.966;8.052;2023-04-22T09:56:38;99811.00;;;22.80
11849;BMP180;5983;49.966;8.052;2023-04-22T09:59:06;99817.00;;;22.30
11849;BMP180;5983;49.966;8.052;2023-04-22T10:01:35;99813.00;;;21.90
11849;BMP180;5983;49.966;8.052;2023-04-22T10:04:01;99818.00;;;21.70
11849;BMP180;5983;49.966;8.052;2023-04-22T10:06:28;99824.00;;;22.00
11849;BMP180;5983;49.966;8.052;2023-04-22T10:08:57;99809.00;;;22.40
11849;BMP180;5983;49.966;8.052;2023-04-22T10:11:24;99803.00;;;22.70
11849;BMP180;5983;49.966;8.052;2023-04-22T10:13:51;99797.00;;;23.10
11849;BMP180;5983;49.966;8.052;2023-04-22T10:16:20;99805.00;;;23.40
11849;BMP180;5983;49.966;8.052;2023-04-22T10:19:06;99806.00;;;23.50
11849;BMP180;5983;49.966;8.052;2023-04-22T10:21:34;99804.00;;;23.40
11849;BMP180;5983;49.966;8.052;2023-04-22T10:24:02;99802.00;;;23.50
11849;BMP180;5983;49.966;8.052;2023-04-22T10:26:40;99799.00;;;23.40
11849;BMP180;5983;49.966;8.052;2023-04-22T10:29:07;99796.00;;;23.20
11849;BMP180;5983;49.966;8.052;2023-04-22T10:31:38;99798.00;;;23.10
11849;BMP180;5983;49.966;8.052;2023-04-22T10:34:09;99798.00;;;23.20
11849;BMP180;5983;49.966;8.052;2023-04-22T10:37:08;99789.00;;;23.40
11849;BMP180;5983;49.966;8.052;2023-04-22T10:40:05;99788.00;;;23.80
11849;BMP180;5983;49.966;8.052;2023-04-22T10:42:33;99786.00;;;23.90
11849;BMP180;5983;49.966;8.052;2023-04-22T10:45:02;99781.00;;;24.00
11849;BMP180;5983;49.966;8.052;2023-04-22T10:47:32;99789.00;;;24.00
11849;BMP180;5983;49.966;8.052;2023-04-22T10:50:18;99784.00;;;24.10
11849;BMP180;5983;49.966;8.052;2023-04-22T10:52:48;99777.00;;;24.30
11849;BMP180;5983;49.966;8.052;2023-04-22T10:55:15;99783.00;;;24.20
11849;BMP180;5983;49.966;8.052;2023-04-22T10:57:43;99784.00;;;24.00
11849;BMP180;5983;49.966;8.052;2023-04-22T11:00:33;99777.00;;;24.10
11849;BMP180;5983;49.966;8.052;2023-04-22T11:03:11;99771.00;;;24.30
11849;BMP180;5983;49.966;8.052;2023-04-22T11:05:39;99766.00;;;24.60
11849;BMP180;5983;49.966;8.052;2023-04-22T11:08:10;99784.00;;;24.70
11849;BMP180;5983;49.966;8.052;2023-04-22T11:10:39;99773.00;;;24.50
11849;BMP180;5983;49.966;8.052;2023-04-22T11:13:09;99770.00;;;24.30
11849;BMP180;5983;49.966;8.052;2023-04-22T11:15:39;99773.00;;;24.20
11849;BMP180;5983;49.966;8.052;2023-04-22T11:18:10;99770.00;;;24.00
11849;BMP180;5983;49.966;8.052;2023-04-22T11:20:37;99765.00;;;24.00
11849;BMP180;5983;49.966;8.052;2023-04-22T11:23:04;99765.00;;;24.10
11849;BMP180;5983;49.966;8.052;2023-04-22T11:25:31;99767.00;;;24.20
11849;BMP180;5983;49.966;8.052;2023-04-22T11:27:58;99764.00;;;24.00
11849;BMP180;5983;49.966;8.052;2023-04-22T11:30:27;99773.00;;;24.00
11849;BMP180;5983;49.966;8.052;2023-04-22T11:32:57;99767.00;;;24.00
11849;BMP180;5983;49.966;8.052;2023-04-22T11:35:28;99759.00;;;24.20
11849;BMP180;5983;49.966;8.052;2023-04-22T11:37:56;99762.00;;;24.40
11849;BMP180;5983;49.966;8.052;2023-04-22T11:40:25;99761.00;;;24.30
11849;BMP180;5983;49.966;8.052;2023-04-22T11:42:52;99765.00;;;24.40
11849;BMP180;5983;49.966;8.052;2023-04-22T11:45:19;99762.00;;;24.20
11849;BMP180;5983;49.966;8.052;2023-04-22T11:47:47;99758.00;;;24.20
11849;BMP180;5983;49.966;8.052;2023-04-22T11:50:15;99762.00;;;24.30
11849;BMP180;5983;49.966;8.052;2023-04-22T11:52:45;99760.00;;;24.10
11849;BMP180;5983;49.966;8.052;2023-04-22T11:55:13;99748.00;;;23.70
11849;BMP180;5983;49.966;8.052;2023-04-22T11:57:41;99751.00;;;23.70
11849;BMP180;5983;49.966;8.052;2023-04-22T12:00:12;99738.00;;;23.90
11849;BMP180;5983;49.966;8.052;2023-04-22T12:02:40;99753.00;;;24.00
11849;BMP180;5983;49.966;8.052;2023-04-22T12:05:09;99740.00;;;23.90
11849;BMP180;5983;49.966;8.052;2023-04-22T12:07:37;99747.00;;;23.90
11849;BMP180;5983;49.966;8.052;2023-04-22T12:10:07;99742.00;;;23.80
11849;BMP180;5983;49.966;8.052;2023-04-22T12:12:34;99749.00;;;23.60
11849;BMP180;5983;49.966;8.052;2023-04-22T12:15:09;99757.00;;;23.40
11849;BMP180;5983;49.966;8.052;2023-04-22T12:17:36;99755.00;;;23.20
11849;BMP180;5983;49.966;8.052;2023-04-22T12:20:04;99767.00;;;23.20
11849;BMP180;5983;49.966;8.052;2023-04-22T12:22:32;99760.00;;;23.10
11849;BMP180;5983;49.966;8.052;2023-04-22T12:24:59;99758.00;;;22.90
11849;BMP180;5983;49.966;8.052;2023-04-22T12:27:27;99760.00;;;22.80
11849;BMP180;5983;49.966;8.052;2023-04-22T12:29:56;99762.00;;;22.70
11849;BMP180;5983;49.966;8.052;2023-04-22T12:32:25;99767.00;;;22.80
11849;BMP180;5983;49.966;8.052;2023-04-22T12:34:51;99765.00;;;22.90
11849;BMP180;5983;49.966;8.052;2023-04-22T12:37:18;99763.00;;;23.10
11849;BMP180;5983;49.966;8.052;2023-04-22T12:39:45;99772.00;;;23.10
11849;BMP180;5983;49.966;8.052;2023-04-22T12:42:12;99758.00;;;23.00
11849;BMP180;5983;49.966;8.052;2023-04-22T12:44:40;99754.00;;;22.90
11849;BMP180;5983;49.966;8.052;2023-04-22T12:47:07;99755.00;;;22.90
11849;BMP180;5983;49.966;8.052;2023-04-22T12:49:36;99763.00;;;22.80
11849;BMP180;5983;49.966;8.052;2023-04-22T12:52:04;99753.00;;;22.70
11849;BMP180;5983;49.966;8.052;2023-04-22T12:54:31;99752.00;;;22.50
11849;BMP180;5983;49.966;8.052;2023-04-22T12:56:58;99750.00;;;22.30
11849;BMP180;5983;49.966;8.052;2023-04-22T12:59:26;99743.00;;;22.10
11849;BMP180;5983;49.966;8.052;2023-04-22T13:01:54;99747.00;;;21.90
11849;BMP180;5983;49.966;8.052;2023-04-22T13:04:20;99751.00;;;21.70
11849;BMP180;5983;49.966;8.052;2023-04-22T13:06:47;99754.00;;;21.50
11849;BMP180;5983;49.966;8.052;2023-04-22T13:09:22;99751.00;;;21.30
11849;BMP180;5983;49.966;8.052;2023-04-22T13:11:50;99752.00;;;21.10
11849;BMP180;5983;49.966;8.052;2023-04-22T13:14:17;99747.00;;;21.00
11849;BMP180;5983;49.966;8.052;2023-04-22T13:16:44;99745.00;;;20.90
11849;BMP180;5983;49.966;8.052;2023-04-22T13:19:12;99758.00;;;20.80
11849;BMP180;5983;49.966;8.052;2023-04-22T13:21:39;99752.00;;;20.70
11849;BMP180;5983;49.966;8.052;2023-04-22T13:24:06;99758.00;;;20.60
11849;BMP180;5983;49.966;8.052;2023-04-22T13:26:35;99753.00;;;20.50
11849;BMP180;5983;49.966;8.052;2023-04-22T13:29:01;99761.00;;;20.40
11849;BMP180;5983;49.966;8.052;2023-04-22T13:31:28;99765.00;;;20.30
11849;BMP180;5983;49.966;8.052;2023-04-22T13:33:55;99763.00;;;20.20
11849;BMP180;5983;49.966;8.052;2023-04-22T13:36:23;99763.00;;;20.10
11849;BMP180;5983;49.966;8.052;2023-04-22T13:38:50;99768.00;;;20.00
11849;BMP180;5983;49.966;8.052;2023-04-22T13:41:17;99776.00;;;19.90
11849;BMP180;5983;49.966;8.052;2023-04-22T13:43:44;99786.00;;;19.90
11849;BMP180;5983;49.966;8.052;2023-04-22T13:46:10;99778.00;;;19.80
11849;BMP180;5983;49.966;8.052;2023-04-22T13:48:37;99786.00;;;19.70
11849;BMP180;5983;49.966;8.052;2023-04-22T13:51:04;99788.00;;;19.60
11849;BMP180;5983;49.966;8.052;2023-04-22T13:53:32;99787.00;;;19.50
11849;BMP180;5983;49.966;8.052;2023-04-22T13:55:59;99779.00;;;19.40
11849;BMP180;5983;49.966;8.052;2023-04-22T13:58:26;99783.00;;;19.30
11849;BMP180;5983;49.966;8.052;2023-04-22T14:00:53;99774.00;;;19.10
11849;BMP180;5983;49.966;8.052;2023-04-22T14:03:19;99783.00;;;19.00
11849;BMP180;5983;49.966;8.052;2023-04-22T14:05:46;99778.00;;;19.00
11849;BMP180;5983;49.966;8.052;2023-04-22T14:08:13;99779.00;;;19.00
11849;BMP180;5983;49.966;8.052;2023-04-22T14:10:41;99774.00;;;19.00
11849;BMP180;5983;49.966;8.052;2023-04-22T14:13:08;99773.00;;;19.00
11849;BMP180;5983;49.966;8.052;2023-04-22T14:15:34;99767.00;;;19.00
11849;BMP180;5983;49.966;8.052;2023-04-22T14:18:01;99762.00;;;19.00
11849;BMP180;5983;49.966;8.052;2023-04-22T14:20:28;99760.00;;;19.00
11849;BMP180;5983;49.966;8.052;2023-04-22T14:22:55;99766.00;;;19.00
11849;BMP180;5983;49.966;8.052;2023-04-22T14:25:22;99764.00;;;18.90
11849;BMP180;5983;49.966;8.052;2023-04-22T14:27:50;99767.00;;;18.90
11849;BMP180;5983;49.966;8.052;2023-04-22T14:30:17;99766.00;;;18.90
11849;BMP180;5983;49.966;8.052;2023-04-22T14:32:46;99764.00;;;18.80